Time;durP1;ratioP1;P1;durP2;ratioP2;P2;SDS_P1;SDS_P2;PMS_P1;PMS_P2;Temp;Humidity;BMP_temperature;BMP_pressure;BME280_temperature;BME280_humidity;BME280_pressure;Samples;Min_cycle;Max_cycle;Signal;HPM_P1;HPM_P2
2023/06/05 00:02:15;;;;;;;0.60;0.57;;;;;;;;;;5036098;28;20094;-57
2023/06/05 00:04:43;;;;;;;0.55;0.55;;;;;;;;;;5055947;28;20052;-58
2023/06/05 00:07:09;;;;;;;0.65;0.60;;;;;;;;;;5054314;28;20053;-58
2023/06/05 00:09:35;;;;;;;0.57;0.57;;;;;;;;;;5056603;28;20060;-57
2023/06/05 00:12:02;;;;;;;0.63;0.63;;;;;;;;;;5048230;28;20076;-56
2023/06/05 00:14:27;;;;;;;0.63;0.63;;;;;;;;;;5050555;28;20684;-57
2023/06/05 00:16:56;;;;;;;0.63;0.63;;;;;;;;;;5058718;28;20055;-57
2023/06/05 00:19:22;;;;;;;0.70;0.70;;;;;;;;;;5058559;28;20115;-57
2023/06/05 00:21:50;;;;;;;0.68;0.68;;;;;;;;;;5060072;28;20135;-57
2023/06/05 00:24:16;;;;;;;0.68;0.50;;;;;;;;;;5052994;28;20093;-57
2023/06/05 00:26:42;;;;;;;0.40;0.40;;;;;;;;;;5051886;28;20404;-57
2023/06/05 00:29:08;;;;;;;0.40;0.40;;;;;;;;;;5057362;28;20617;-57
2023/06/05 00:31:34;;;;;;;0.30;0.30;;;;;;;;;;5051220;28;20099;-57
2023/06/05 00:34:00;;;;;;;0.52;0.40;;;;;;;;;;5054168;28;20163;-58
2023/06/05 00:36:27;;;;;;;0.50;0.40;;;;;;;;;;5051918;28;20120;-57
2023/06/05 00:38:54;;;;;;;0.40;0.40;;;;;;;;;;5052782;28;20052;-57
2023/06/05 00:41:20;;;;;;;0.40;0.40;;;;;;;;;;5057308;28;20143;-57
2023/06/05 00:43:46;;;;;;;0.43;0.43;;;;;;;;;;5037675;28;20518;-57
2023/06/05 00:46:13;;;;;;;0.68;0.43;;;;;;;;;;5054368;28;20871;-57
2023/06/05 00:48:40;;;;;;;0.40;0.40;;;;;;;;;;5054445;28;20056;-57
2023/06/05 00:51:07;;;;;;;0.38;0.32;;;;;;;;;;5057008;28;20677;-57
2023/06/05 00:53:36;;;;;;;0.93;0.75;;;;;;;;;;5051144;28;20492;-56
2023/06/05 00:56:03;;;;;;;1.00;0.80;;;;;;;;;;5057016;28;20048;-57
2023/06/05 00:58:29;;;;;;;0.50;0.50;;;;;;;;;;5056723;28;20418;-57
2023/06/05 01:00:56;;;;;;;0.43;0.40;;;;;;;;;;5058126;28;20902;-57
2023/06/05 01:03:23;;;;;;;0.52;0.52;;;;;;;;;;5058632;28;20133;-57
2023/06/05 01:05:49;;;;;;;0.52;0.50;;;;;;;;;;5057702;28;20048;-57
2023/06/05 01:08:16;;;;;;;0.60;0.52;;;;;;;;;;5056479;28;20082;-56
2023/06/05 01:10:43;;;;;;;0.52;0.52;;;;;;;;;;5054344;28;20045;-57
2023/06/05 01:13:20;;;;;;;1.10;0.60;;;;;;;;;;5054184;28;20052;-57
2023/06/05 01:15:48;;;;;;;0.50;0.50;;;;;;;;;;5054519;28;20558;-56
2023/06/05 01:18:14;;;;;;;0.40;0.30;;;;;;;;;;5055941;28;20081;-56
2023/06/05 01:20:42;;;;;;;0.47;0.47;;;;;;;;;;5054780;28;20749;-57
2023/06/05 01:23:08;;;;;;;0.70;0.68;;;;;;;;;;5054878;28;20664;-57
2023/06/05 01:25:36;;;;;;;0.80;0.80;;;;;;;;;;5051441;28;20115;-57
2023/06/05 01:28:11;;;;;;;0.75;0.60;;;;;;;;;;5047188;28;20396;-58
2023/06/05 01:30:44;;;;;;;0.75;0.75;;;;;;;;;;5035227;28;20033;-57
2023/06/05 01:33:12;;;;;;;0.70;0.70;;;;;;;;;;5053096;28;20365;-57
2023/06/05 01:35:39;;;;;;;0.93;0.88;;;;;;;;;;5054584;28;20089;-57
2023/06/05 01:38:07;;;;;;;0.80;0.80;;;;;;;;;;5051243;28;20055;-57
2023/06/05 01:40:34;;;;;;;0.50;0.50;;;;;;;;;;5056891;28;20489;-58
2023/06/05 01:43:02;;;;;;;1.45;0.75;;;;;;;;;;5053137;28;20049;-57
2023/06/05 01:45:28;;;;;;;0.50;0.50;;;;;;;;;;5055095;28;20075;-57
2023/06/05 01:47:54;;;;;;;1.23;0.70;;;;;;;;;;5057010;28;20074;-57
2023/06/05 01:50:20;;;;;;;0.40;0.40;;;;;;;;;;5050468;28;20072;-57
2023/06/05 01:52:47;;;;;;;1.05;0.40;;;;;;;;;;5054684;28;20049;-56
2023/06/05 01:55:18;;;;;;;0.73;0.50;;;;;;;;;;5056578;28;20052;-58
2023/06/05 01:57:44;;;;;;;0.50;0.50;;;;;;;;;;5054902;28;20052;-57
2023/06/05 02:00:15;;;;;;;0.50;0.50;;;;;;;;;;5055262;28;20124;-57
2023/06/05 02:02:41;;;;;;;0.50;0.50;;;;;;;;;;5053603;28;20052;-57
2023/06/05 02:05:08;;;;;;;0.73;0.73;;;;;;;;;;5050779;28;20064;-57
2023/06/05 02:07:37;;;;;;;0.60;0.60;;;;;;;;;;5056100;28;20118;-57
2023/06/05 02:10:05;;;;;;;1.35;0.60;;;;;;;;;;5054550;28;20396;-57
2023/06/05 02:12:32;;;;;;;0.70;0.68;;;;;;;;;;5054622;28;20045;-57
2023/06/05 02:14:58;;;;;;;0.50;0.50;;;;;;;;;;5057195;28;20044;-57
2023/06/05 02:17:24;;;;;;;0.60;0.60;;;;;;;;;;5057956;28;20036;-58
2023/06/05 02:19:51;;;;;;;0.43;0.43;;;;;;;;;;5052469;28;20049;-56
2023/06/05 02:22:17;;;;;;;0.30;0.30;;;;;;;;;;5059203;28;20162;-56
2023/06/05 02:24:43;;;;;;;0.40;0.40;;;;;;;;;;5056034;28;20051;-57
2023/06/05 02:27:10;;;;;;;0.47;0.45;;;;;;;;;;5056552;28;20041;-57
2023/06/05 02:29:36;;;;;;;0.38;0.38;;;;;;;;;;5055085;28;20052;-56
2023/06/05 02:32:03;;;;;;;0.40;0.40;;;;;;;;;;5053746;28;20083;-57
2023/06/05 02:34:29;;;;;;;0.50;0.50;;;;;;;;;;5058055;28;20037;-56
2023/06/05 02:36:55;;;;;;;0.30;0.30;;;;;;;;;;5057021;28;20059;-57
2023/06/05 02:39:21;;;;;;;0.40;0.40;;;;;;;;;;5058037;28;21041;-58
2023/06/05 02:41:47;;;;;;;0.43;0.30;;;;;;;;;;5055122;28;20041;-58
2023/06/05 02:44:13;;;;;;;0.30;0.30;;;;;;;;;;5047899;28;21879;-58
2023/06/05 02:46:39;;;;;;;0.30;0.30;;;;;;;;;;5052868;28;20045;-58
2023/06/05 02:49:05;;;;;;;0.55;0.55;;;;;;;;;;5051981;28;20041;-58
2023/06/05 02:51:32;;;;;;;0.50;0.50;;;;;;;;;;5051494;28;20207;-58
2023/06/05 02:53:58;;;;;;;0.32;0.32;;;;;;;;;;5053053;28;20048;-57
2023/06/05 02:56:26;;;;;;;0.35;0.35;;;;;;;;;;5047176;28;20068;-58
2023/06/05 02:58:52;;;;;;;0.65;0.63;;;;;;;;;;5051208;28;20135;-58
2023/06/05 03:01:21;;;;;;;0.47;0.40;;;;;;;;;;5052838;28;20090;-58
2023/06/05 03:03:48;;;;;;;0.60;0.60;;;;;;;;;;5057552;28;20361;-58
2023/06/05 03:06:17;;;;;;;0.68;0.68;;;;;;;;;;5057909;28;20056;-58
2023/06/05 03:08:43;;;;;;;0.70;0.70;;;;;;;;;;5053779;28;20056;-58
2023/06/05 03:11:09;;;;;;;0.40;0.40;;;;;;;;;;5054212;28;20128;-58
2023/06/05 03:13:35;;;;;;;0.50;0.50;;;;;;;;;;5056403;28;20150;-58
2023/06/05 03:16:01;;;;;;;0.45;0.40;;;;;;;;;;5054277;28;20119;-57
2023/06/05 03:18:28;;;;;;;0.57;0.47;;;;;;;;;;5055254;28;20047;-57
2023/06/05 03:20:57;;;;;;;0.50;0.50;;;;;;;;;;5036822;28;20131;-57
2023/06/05 03:23:24;;;;;;;0.40;0.40;;;;;;;;;;5058925;28;20029;-58
2023/06/05 03:25:51;;;;;;;0.30;0.30;;;;;;;;;;5054961;28;20057;-57
2023/06/05 03:28:17;;;;;;;0.30;0.30;;;;;;;;;;5055925;28;20044;-58
2023/06/05 03:30:44;;;;;;;0.25;0.25;;;;;;;;;;5057975;28;20032;-58
2023/06/05 03:33:10;;;;;;;0.35;0.35;;;;;;;;;;5061010;28;20099;-58
2023/06/05 03:35:36;;;;;;;0.40;0.40;;;;;;;;;;5063610;28;20055;-57
2023/06/05 03:38:02;;;;;;;0.30;0.30;;;;;;;;;;5060332;28;20071;-58
2023/06/05 03:40:28;;;;;;;0.30;0.30;;;;;;;;;;5058612;28;20036;-58
2023/06/05 03:42:54;;;;;;;0.52;0.52;;;;;;;;;;5057925;28;20052;-58
2023/06/05 03:45:22;;;;;;;0.40;0.30;;;;;;;;;;5057820;28;20051;-57
2023/06/05 03:47:48;;;;;;;0.50;0.50;;;;;;;;;;5058056;28;20044;-58
2023/06/05 03:50:17;;;;;;;0.40;0.40;;;;;;;;;;5056715;28;20083;-58
2023/06/05 03:52:43;;;;;;;0.75;0.50;;;;;;;;;;5059500;28;20045;-58
2023/06/05 03:55:10;;;;;;;0.20;0.20;;;;;;;;;;5056917;28;20047;-57
2023/06/05 03:57:37;;;;;;;0.40;0.40;;;;;;;;;;5057925;28;20542;-58
2023/06/05 04:00:05;;;;;;;0.30;0.30;;;;;;;;;;5056630;28;20111;-58
2023/06/05 04:02:31;;;;;;;0.40;0.40;;;;;;;;;;5059761;28;20527;-58
2023/06/05 04:04:57;;;;;;;0.25;0.25;;;;;;;;;;5059239;28;20047;-58
2023/06/05 04:07:23;;;;;;;0.40;0.38;;;;;;;;;;5057765;28;20049;-57
2023/06/05 04:09:49;;;;;;;0.30;0.30;;;;;;;;;;5057982;28;20089;-58
2023/06/05 04:12:16;;;;;;;0.47;0.45;;;;;;;;;;5043022;28;20056;-58
2023/06/05 04:14:44;;;;;;;0.20;0.20;;;;;;;;;;5053105;28;20032;-57
2023/06/05 04:17:11;;;;;;;0.50;0.40;;;;;;;;;;5057562;28;20051;-57
2023/06/05 04:19:37;;;;;;;0.43;0.43;;;;;;;;;;5054830;28;20051;-57
2023/06/05 04:22:03;;;;;;;0.30;0.30;;;;;;;;;;5053044;28;20127;-58
2023/06/05 04:24:30;;;;;;;0.45;0.38;;;;;;;;;;5056867;28;20116;-58
2023/06/05 04:26:56;;;;;;;0.50;0.50;;;;;;;;;;5056211;28;20396;-58
2023/06/05 04:29:22;;;;;;;0.70;0.70;;;;;;;;;;5057125;28;20043;-58
2023/06/05 04:31:48;;;;;;;0.68;0.60;;;;;;;;;;5059458;28;20078;-58
2023/06/05 04:34:17;;;;;;;0.43;0.43;;;;;;;;;;5055394;28;20068;-58
2023/06/05 04:36:43;;;;;;;0.38;0.38;;;;;;;;;;5061538;28;20036;-57
2023/06/05 04:39:17;;;;;;;0.50;0.50;;;;;;;;;;5053481;28;20053;-58
2023/06/05 04:41:44;;;;;;;0.52;0.52;;;;;;;;;;5052681;28;20102;-58
2023/06/05 04:44:12;;;;;;;0.80;0.80;;;;;;;;;;5059987;28;20644;-58
2023/06/05 04:46:39;;;;;;;1.13;1.02;;;;;;;;;;5054246;28;20087;-58
2023/06/05 04:49:06;;;;;;;0.55;0.55;;;;;;;;;;5055877;28;20095;-58
2023/06/05 04:51:33;;;;;;;0.65;0.60;;;;;;;;;;5055713;28;20044;-58
2023/06/05 04:53:59;;;;;;;0.50;0.50;;;;;;;;;;5054709;28;20443;-58
2023/06/05 04:56:25;;;;;;;0.63;0.40;;;;;;;;;;5060990;28;20045;-57
2023/06/05 04:58:53;;;;;;;0.57;0.55;;;;;;;;;;5053364;28;20041;-57
2023/06/05 05:01:19;;;;;;;2.40;0.88;;;;;;;;;;5054537;28;20048;-58
2023/06/05 05:03:46;;;;;;;1.75;0.60;;;;;;;;;;5052971;28;20087;-57
2023/06/05 05:06:15;;;;;;;0.47;0.43;;;;;;;;;;5053196;28;20037;-57
2023/06/05 05:08:41;;;;;;;0.60;0.60;;;;;;;;;;5053708;28;20058;-58
2023/06/05 05:11:07;;;;;;;0.47;0.47;;;;;;;;;;5052223;28;20044;-58
2023/06/05 05:13:33;;;;;;;0.55;0.43;;;;;;;;;;5053381;28;20067;-58
2023/06/05 05:15:59;;;;;;;0.65;0.50;;;;;;;;;;5054755;28;20129;-58
2023/06/05 05:18:26;;;;;;;0.40;0.40;;;;;;;;;;5053704;28;20036;-58
2023/06/05 05:20:53;;;;;;;0.70;0.70;;;;;;;;;;5055758;28;20045;-58
2023/06/05 05:23:20;;;;;;;1.02;0.63;;;;;;;;;;5056412;28;20060;-57
2023/06/05 05:25:46;;;;;;;1.00;0.68;;;;;;;;;;5055862;28;20052;-57
2023/06/05 05:28:12;;;;;;;0.45;0.45;;;;;;;;;;5071080;28;20070;-58
2023/06/05 05:30:38;;;;;;;0.95;0.75;;;;;;;;;;5054023;28;20083;-58
2023/06/05 05:33:05;;;;;;;0.63;0.63;;;;;;;;;;5051646;28;20114;-57
2023/06/05 05:35:31;;;;;;;0.50;0.50;;;;;;;;;;5054946;28;20041;-58
2023/06/05 05:37:57;;;;;;;0.60;0.60;;;;;;;;;;5055702;28;20037;-58
2023/06/05 05:40:23;;;;;;;1.00;0.55;;;;;;;;;;5053550;28;20063;-58
2023/06/05 05:42:49;;;;;;;0.55;0.55;;;;;;;;;;5056241;28;20074;-58
2023/06/05 05:45:15;;;;;;;1.80;0.77;;;;;;;;;;5052321;28;20091;-58
2023/06/05 05:47:41;;;;;;;1.25;0.65;;;;;;;;;;5040031;28;20132;-58
2023/06/05 05:50:07;;;;;;;1.05;0.95;;;;;;;;;;5051872;28;20073;-58
2023/06/05 05:52:33;;;;;;;0.75;0.75;;;;;;;;;;5059601;28;20651;-57
2023/06/05 05:55:00;;;;;;;0.75;0.75;;;;;;;;;;5054644;28;20049;-57
2023/06/05 05:57:27;;;;;;;0.43;0.43;;;;;;;;;;5055496;28;20040;-57
2023/06/05 05:59:53;;;;;;;1.38;0.95;;;;;;;;;;5059812;28;20044;-58
2023/06/05 06:02:20;;;;;;;1.10;1.00;;;;;;;;;;5058505;28;20107;-58
2023/06/05 06:04:47;;;;;;;0.80;0.80;;;;;;;;;;5057669;28;20048;-58
2023/06/05 06:07:13;;;;;;;0.65;0.63;;;;;;;;;;5057329;28;20044;-58
2023/06/05 06:09:40;;;;;;;0.70;0.70;;;;;;;;;;5056804;28;20045;-57
2023/06/05 06:12:07;;;;;;;0.85;0.85;;;;;;;;;;5051825;28;20124;-58
2023/06/05 06:14:33;;;;;;;0.65;0.65;;;;;;;;;;5053129;28;20499;-57
2023/06/05 06:17:00;;;;;;;1.05;0.70;;;;;;;;;;5052748;28;20594;-58
2023/06/05 06:19:27;;;;;;;0.80;0.80;;;;;;;;;;5051505;28;20102;-57
2023/06/05 06:21:54;;;;;;;0.57;0.57;;;;;;;;;;5050025;28;20085;-58
2023/06/05 06:24:21;;;;;;;0.70;0.70;;;;;;;;;;5053613;28;20135;-58
2023/06/05 06:26:47;;;;;;;0.40;0.40;;;;;;;;;;5051366;28;20552;-58
2023/06/05 06:29:23;;;;;;;0.80;0.80;;;;;;;;;;5051836;28;20115;-58
2023/06/05 06:31:49;;;;;;;0.68;0.63;;;;;;;;;;5052426;28;20063;-58
2023/06/05 06:34:16;;;;;;;1.00;0.90;;;;;;;;;;5037746;28;20586;-58
2023/06/05 06:36:44;;;;;;;0.95;0.82;;;;;;;;;;5057426;28;20040;-57
2023/06/05 06:39:10;;;;;;;0.70;0.60;;;;;;;;;;5054533;28;20067;-58
2023/06/05 06:41:37;;;;;;;0.57;0.57;;;;;;;;;;5050957;28;20048;-58
2023/06/05 06:44:04;;;;;;;1.10;0.85;;;;;;;;;;5053203;28;20492;-58
2023/06/05 06:46:30;;;;;;;0.77;0.70;;;;;;;;;;5054143;28;20056;-58
2023/06/05 06:48:56;;;;;;;1.40;0.70;;;;;;;;;;5055458;28;20040;-58
2023/06/05 06:51:22;;;;;;;0.80;0.70;;;;;;;;;;5055151;28;20512;-58
2023/06/05 06:53:49;;;;;;;0.47;0.47;;;;;;;;;;5053216;28;20044;-58
2023/06/05 06:56:15;;;;;;;0.93;0.80;;;;;;;;;;5051751;28;20527;-58
2023/06/05 06:58:42;;;;;;;0.70;0.70;;;;;;;;;;5051737;28;20590;-58
2023/06/05 07:01:08;;;;;;;0.80;0.80;;;;;;;;;;5053092;28;20127;-58
2023/06/05 07:03:35;;;;;;;0.93;0.93;;;;;;;;;;5058444;28;20040;-58
2023/06/05 07:06:01;;;;;;;0.90;0.80;;;;;;;;;;5056830;28;20049;-58
2023/06/05 07:08:27;;;;;;;1.05;1.00;;;;;;;;;;5054561;28;20114;-57
2023/06/05 07:10:56;;;;;;;0.80;0.80;;;;;;;;;;5055763;28;20072;-58
2023/06/05 07:13:22;;;;;;;1.42;1.33;;;;;;;;;;5055127;28;20099;-59
2023/06/05 07:15:49;;;;;;;1.20;1.10;;;;;;;;;;5057759;28;20120;-58
2023/06/05 07:18:15;;;;;;;1.15;0.98;;;;;;;;;;5059645;28;20040;-58
2023/06/05 07:20:41;;;;;;;1.42;1.23;;;;;;;;;;5058177;28;20045;-58
2023/06/05 07:23:07;;;;;;;1.25;1.08;;;;;;;;;;5055848;28;20040;-58
2023/06/05 07:25:33;;;;;;;1.10;1.10;;;;;;;;;;5061289;28;20488;-58
2023/06/05 07:28:00;;;;;;;1.80;0.80;;;;;;;;;;5057483;28;20041;-57
2023/06/05 07:30:29;;;;;;;1.38;1.27;;;;;;;;;;5058313;28;20045;-58
2023/06/05 07:32:55;;;;;;;1.45;1.23;;;;;;;;;;5060333;28;20071;-56
2023/06/05 07:35:23;;;;;;;1.23;0.93;;;;;;;;;;5057270;28;20037;-57
2023/06/05 07:37:49;;;;;;;1.38;1.00;;;;;;;;;;5057591;28;20169;-58
2023/06/05 07:40:16;;;;;;;1.58;1.27;;;;;;;;;;5059614;28;20127;-58
2023/06/05 07:42:42;;;;;;;1.10;1.00;;;;;;;;;;5062169;28;20059;-58
2023/06/05 07:45:08;;;;;;;1.17;0.90;;;;;;;;;;5068678;28;20408;-58
2023/06/05 07:47:34;;;;;;;1.60;1.17;;;;;;;;;;5060476;28;20043;-58
2023/06/05 07:50:03;;;;;;;1.17;0.93;;;;;;;;;;5034882;28;20057;-58
2023/06/05 07:52:30;;;;;;;0.90;0.90;;;;;;;;;;5058345;28;20087;-59
2023/06/05 07:54:56;;;;;;;0.95;0.93;;;;;;;;;;5062696;28;20040;-58
2023/06/05 07:57:23;;;;;;;0.85;0.85;;;;;;;;;;5058987;28;20167;-58
2023/06/05 07:59:50;;;;;;;0.90;0.90;;;;;;;;;;5061322;28;20049;-59
2023/06/05 08:02:17;;;;;;;1.38;1.27;;;;;;;;;;5063645;28;20093;-58
2023/06/05 08:04:44;;;;;;;1.45;1.23;;;;;;;;;;5054238;28;20355;-58
2023/06/05 08:07:10;;;;;;;0.98;0.80;;;;;;;;;;5063799;28;20105;-58
2023/06/05 08:09:37;;;;;;;0.90;0.90;;;;;;;;;;5057423;28;20067;-59
2023/06/05 08:12:06;;;;;;;0.65;0.65;;;;;;;;;;5062996;28;20195;-58
2023/06/05 08:14:32;;;;;;;1.13;1.02;;;;;;;;;;5065861;28;20047;-58
2023/06/05 08:16:58;;;;;;;2.05;1.05;;;;;;;;;;5037568;28;20146;-58
2023/06/05 08:19:24;;;;;;;1.15;1.02;;;;;;;;;;5055469;28;20048;-58
2023/06/05 08:21:52;;;;;;;0.85;0.70;;;;;;;;;;5057072;28;20045;-58
2023/06/05 08:24:18;;;;;;;1.23;1.00;;;;;;;;;;5063643;28;20041;-58
2023/06/05 08:26:44;;;;;;;0.90;0.88;;;;;;;;;;5066308;28;20036;-58
2023/06/05 08:29:12;;;;;;;1.02;0.85;;;;;;;;;;5063221;28;20052;-59
2023/06/05 08:31:38;;;;;;;0.70;0.70;;;;;;;;;;5064515;28;20396;-58
2023/06/05 08:34:05;;;;;;;0.85;0.80;;;;;;;;;;5061674;28;20037;-62
2023/06/05 08:36:32;;;;;;;0.70;0.70;;;;;;;;;;5063022;28;20049;-62
2023/06/05 08:38:59;;;;;;;0.85;0.80;;;;;;;;;;5060986;28;20052;-59
2023/06/05 08:41:25;;;;;;;0.80;0.80;;;;;;;;;;5058873;28;20059;-57
2023/06/05 08:43:51;;;;;;;0.70;0.70;;;;;;;;;;5065252;28;20036;-59
2023/06/05 08:46:17;;;;;;;0.80;0.80;;;;;;;;;;5061757;28;20172;-59
2023/06/05 08:48:48;;;;;;;0.90;0.90;;;;;;;;;;5063503;28;20435;-58
2023/06/05 08:51:15;;;;;;;0.70;0.70;;;;;;;;;;5058555;28;20441;-59
2023/06/05 08:54:04;;;;;;;0.60;0.60;;;;;;;;;;5064850;28;20235;-59
2023/06/05 08:56:31;;;;;;;0.95;0.95;;;;;;;;;;5053156;28;20049;-59
2023/06/05 08:58:57;;;;;;;0.43;0.43;;;;;;;;;;5058867;28;20041;-58
2023/06/05 09:01:24;;;;;;;0.50;0.50;;;;;;;;;;5065946;28;20044;-59
2023/06/05 09:03:50;;;;;;;0.60;0.60;;;;;;;;;;5059826;28;20508;-59
2023/06/05 09:06:16;;;;;;;0.70;0.70;;;;;;;;;;5064546;28;20041;-59
2023/06/05 09:08:44;;;;;;;0.80;0.80;;;;;;;;;;5062327;28;20514;-59
2023/06/05 09:11:27;;;;;;;0.90;0.75;;;;;;;;;;5035033;28;20424;-59
2023/06/05 09:13:53;;;;;;;0.70;0.70;;;;;;;;;;5060255;28;20063;-59
2023/06/05 09:16:20;;;;;;;0.85;0.85;;;;;;;;;;5055044;28;20052;-59
2023/06/05 09:18:53;;;;;;;1.40;1.02;;;;;;;;;;5054061;28;20048;-59
2023/06/05 09:21:19;;;;;;;1.15;1.00;;;;;;;;;;5058013;28;20575;-59
2023/06/05 09:23:45;;;;;;;0.90;0.63;;;;;;;;;;5064168;28;20048;-59
2023/06/05 09:26:13;;;;;;;1.35;0.70;;;;;;;;;;5061805;28;20040;-59
2023/06/05 09:28:55;;;;;;;1.52;1.10;;;;;;;;;;5064508;28;20036;-58
2023/06/05 09:31:23;;;;;;;1.20;1.10;;;;;;;;;;5057247;28;20089;-59
2023/06/05 09:33:56;;;;;;;0.85;0.85;;;;;;;;;;5058220;28;20076;-59
2023/06/05 09:36:22;;;;;;;0.73;0.73;;;;;;;;;;5064694;28;20044;-59
2023/06/05 09:38:50;;;;;;;0.88;0.88;;;;;;;;;;5056632;28;20037;-58
2023/06/05 09:41:20;;;;;;;1.15;0.73;;;;;;;;;;5081080;28;20043;-59
2023/06/05 09:43:49;;;;;;;0.60;0.60;;;;;;;;;;5058299;28;20048;-58
2023/06/05 09:46:15;;;;;;;1.20;0.80;;;;;;;;;;5064974;28;20403;-58
2023/06/05 09:48:43;;;;;;;0.80;0.80;;;;;;;;;;5063375;28;20076;-58
2023/06/05 09:51:16;;;;;;;0.88;0.85;;;;;;;;;;5059978;28;20119;-59
2023/06/05 09:53:46;;;;;;;1.05;1.00;;;;;;;;;;5060848;28;20048;-59
2023/06/05 09:56:14;;;;;;;1.35;1.15;;;;;;;;;;5063474;28;20064;-58
2023/06/05 09:58:44;;;;;;;0.80;0.80;;;;;;;;;;5061017;28;20048;-59
2023/06/05 10:01:11;;;;;;;0.82;0.80;;;;;;;;;;5054026;28;20119;-58
2023/06/05 10:03:37;;;;;;;0.90;0.90;;;;;;;;;;5055986;28;20079;-58
2023/06/05 10:06:05;;;;;;;1.00;1.00;;;;;;;;;;5060729;28;20064;-58
2023/06/05 10:08:31;;;;;;;1.10;1.00;;;;;;;;;;5060220;28;20055;-58
2023/06/05 10:10:57;;;;;;;1.27;1.13;;;;;;;;;;5059522;28;20047;-65
2023/06/05 10:13:23;;;;;;;1.25;1.13;;;;;;;;;;5061516;28;20090;-60
2023/06/05 10:15:51;;;;;;;0.75;0.75;;;;;;;;;;5061719;28;20490;-59
2023/06/05 10:18:18;;;;;;;1.40;1.30;;;;;;;;;;5054766;28;20131;-59
2023/06/05 10:20:47;;;;;;;1.02;0.85;;;;;;;;;;5063468;28;20079;-59
2023/06/05 10:23:16;;;;;;;0.73;0.73;;;;;;;;;;5056328;28;20072;-59
2023/06/05 10:25:42;;;;;;;0.90;0.90;;;;;;;;;;5063570;28;20080;-59
2023/06/05 10:28:11;;;;;;;1.10;1.00;;;;;;;;;;5039153;28;20048;-60
2023/06/05 10:30:37;;;;;;;1.98;1.30;;;;;;;;;;5047619;28;20379;-59
2023/06/05 10:33:12;;;;;;;0.95;0.88;;;;;;;;;;5059757;28;20639;-59
2023/06/05 10:35:51;;;;;;;0.77;0.77;;;;;;;;;;5047302;28;20087;-59
2023/06/05 10:38:24;;;;;;;1.08;0.98;;;;;;;;;;5059051;28;20570;-59
2023/06/05 10:40:54;;;;;;;1.02;0.85;;;;;;;;;;5062345;28;20048;-59
2023/06/05 10:43:43;;;;;;;1.17;1.08;;;;;;;;;;5062404;28;20125;-59
2023/06/05 10:46:27;;;;;;;1.15;1.05;;;;;;;;;;5038808;28;20570;-59
2023/06/05 10:49:14;;;;;;;1.00;1.00;;;;;;;;;;5063214;28;20551;-60
2023/06/05 10:51:40;;;;;;;1.35;1.15;;;;;;;;;;5055147;28;20562;-59
2023/06/05 10:54:07;;;;;;;0.85;0.82;;;;;;;;;;5059859;28;20048;-59
2023/06/05 10:56:53;;;;;;;1.02;0.93;;;;;;;;;;5063027;28;20044;-59
2023/06/05 10:59:23;;;;;;;1.30;1.20;;;;;;;;;;5046520;28;20496;-58
2023/06/05 11:02:11;;;;;;;1.17;1.08;;;;;;;;;;5062927;28;20050;-58
2023/06/05 11:04:46;;;;;;;1.25;1.02;;;;;;;;;;5047150;28;20115;-57
2023/06/05 11:07:24;;;;;;;1.02;0.90;;;;;;;;;;5055808;28;20179;-57
2023/06/05 11:10:03;;;;;;;0.77;0.77;;;;;;;;;;5052780;28;20056;-56
2023/06/05 11:12:41;;;;;;;0.80;0.80;;;;;;;;;;5053355;28;20044;-56
2023/06/05 11:15:10;;;;;;;0.80;0.70;;;;;;;;;;5055743;28;20068;-57
2023/06/05 11:17:37;;;;;;;0.90;0.90;;;;;;;;;;5050381;28;20205;-57
2023/06/05 11:20:09;;;;;;;0.80;0.80;;;;;;;;;;5051600;28;20041;-57
2023/06/05 11:22:53;;;;;;;1.40;1.30;;;;;;;;;;5054064;28;20049;-56
2023/06/05 11:25:30;;;;;;;1.70;1.20;;;;;;;;;;5049198;28;20353;-57
2023/06/05 11:28:05;;;;;;;0.93;0.93;;;;;;;;;;5053851;28;20044;-56
2023/06/05 11:30:32;;;;;;;0.95;0.85;;;;;;;;;;5057748;28;20116;-56
2023/06/05 11:33:14;;;;;;;0.95;0.95;;;;;;;;;;5062274;28;20041;-57
2023/06/05 11:35:41;;;;;;;1.20;1.10;;;;;;;;;;5059802;28;20032;-57
2023/06/05 11:38:08;;;;;;;1.17;1.08;;;;;;;;;;5053366;28;20028;-56
2023/06/05 11:40:34;;;;;;;1.45;1.05;;;;;;;;;;5059727;28;20093;-56
2023/06/05 11:43:05;;;;;;;1.77;1.20;;;;;;;;;;5061094;28;20428;-56
2023/06/05 11:45:31;;;;;;;1.35;1.10;;;;;;;;;;5061400;28;20098;-57
2023/06/05 11:48:09;;;;;;;1.02;1.02;;;;;;;;;;5058039;28;20455;-56
2023/06/05 11:50:36;;;;;;;0.63;0.63;;;;;;;;;;5063449;28;20115;-57
2023/06/05 11:53:05;;;;;;;1.10;1.00;;;;;;;;;;5057674;28;20044;-56
2023/06/05 11:56:17;;;;;;;0.77;0.77;;;;;;;;;;5051966;28;20094;-56
2023/06/05 11:58:22;;;;;;;0.95;0.90;;;;;;;;;;5041155;28;20132;-57
2023/06/05 12:00:48;;;;;;;0.70;0.70;;;;;;;;;;5055110;28;20086;-57
2023/06/05 12:03:20;;;;;;;1.10;1.00;;;;;;;;;;5053832;28;20043;-56
2023/06/05 12:05:47;;;;;;;2.83;1.02;;;;;;;;;;5054868;28;20040;-57
2023/06/05 12:08:28;;;;;;;0.80;0.80;;;;;;;;;;5060004;28;20076;-56
2023/06/05 12:10:57;;;;;;;1.45;1.20;;;;;;;;;;5059489;28;20124;-57
2023/06/05 12:13:23;;;;;;;1.52;1.10;;;;;;;;;;5057468;28;20041;-57
2023/06/05 12:15:59;;;;;;;1.05;0.98;;;;;;;;;;5060247;28;20040;-57
2023/06/05 12:18:32;;;;;;;1.48;0.77;;;;;;;;;;5062110;28;20148;-56
2023/06/05 12:20:59;;;;;;;0.98;0.93;;;;;;;;;;5061784;28;20067;-56
2023/06/05 12:23:25;;;;;;;0.90;0.90;;;;;;;;;;5052531;28;20041;-56
2023/06/05 12:26:01;;;;;;;1.33;1.05;;;;;;;;;;5053239;28;20434;-54
2023/06/05 12:28:28;;;;;;;0.70;0.70;;;;;;;;;;5058677;28;20139;-57
2023/06/05 12:30:54;;;;;;;1.23;1.10;;;;;;;;;;5053917;28;20029;-56
2023/06/05 12:33:21;;;;;;;1.13;1.08;;;;;;;;;;5061753;28;20139;-57
2023/06/05 12:35:47;;;;;;;0.80;0.80;;;;;;;;;;5052885;28;20048;-57
2023/06/05 12:38:14;;;;;;;0.73;0.73;;;;;;;;;;5055012;28;20032;-57
2023/06/05 12:40:40;;;;;;;1.65;0.98;;;;;;;;;;5053702;28;20071;-57
2023/06/05 12:43:17;;;;;;;1.00;1.00;;;;;;;;;;5051674;28;20048;-57
2023/06/05 12:45:43;;;;;;;1.42;0.95;;;;;;;;;;5069065;28;20412;-57
2023/06/05 12:48:10;;;;;;;1.60;1.50;;;;;;;;;;5057902;28;20392;-57
2023/06/05 12:50:37;;;;;;;1.52;1.40;;;;;;;;;;5054966;28;20052;-57
2023/06/05 12:53:03;;;;;;;1.00;1.00;;;;;;;;;;5055858;28;20159;-56
2023/06/05 12:55:29;;;;;;;1.30;1.20;;;;;;;;;;5062653;28;20127;-57
2023/06/05 12:57:55;;;;;;;3.25;1.85;;;;;;;;;;5062943;28;20061;-57
2023/06/05 13:00:21;;;;;;;2.38;2.15;;;;;;;;;;5060520;28;20040;-56
2023/06/05 13:02:48;;;;;;;3.33;2.58;;;;;;;;;;5056497;28;20036;-57
2023/06/05 13:05:16;;;;;;;1.50;1.40;;;;;;;;;;5061536;28;20314;-56
2023/06/05 13:07:42;;;;;;;1.98;1.65;;;;;;;;;;5058264;28;20074;-57
2023/06/05 13:10:11;;;;;;;1.90;1.70;;;;;;;;;;5053377;28;20096;-56
2023/06/05 13:12:37;;;;;;;1.63;1.52;;;;;;;;;;5055413;28;20094;-57
2023/06/05 13:15:06;;;;;;;2.40;2.03;;;;;;;;;;5060006;28;20432;-56
2023/06/05 13:17:35;;;;;;;1.70;1.60;;;;;;;;;;5063111;28;20047;-56
2023/06/05 13:20:03;;;;;;;1.13;1.02;;;;;;;;;;5057301;28;20059;-56
2023/06/05 13:22:29;;;;;;;1.70;1.60;;;;;;;;;;5063319;28;20036;-56
2023/06/05 13:24:55;;;;;;;3.67;2.63;;;;;;;;;;5058892;28;20036;-56
2023/06/05 13:27:21;;;;;;;2.20;1.95;;;;;;;;;;5065100;28;20372;-56
2023/06/05 13:29:47;;;;;;;1.35;1.23;;;;;;;;;;5058989;28;20028;-57
2023/06/05 13:32:13;;;;;;;1.33;1.23;;;;;;;;;;5054436;28;20396;-56
2023/06/05 13:34:39;;;;;;;1.75;1.65;;;;;;;;;;5057203;28;20048;-57
2023/06/05 13:37:05;;;;;;;3.22;2.38;;;;;;;;;;5057964;28;20052;-57
2023/06/05 13:39:31;;;;;;;2.58;2.38;;;;;;;;;;5056456;28;20060;-57
2023/06/05 13:41:57;;;;;;;2.50;1.73;;;;;;;;;;5062335;28;20040;-56
2023/06/05 13:44:23;;;;;;;1.60;1.50;;;;;;;;;;5060511;28;20071;-57
2023/06/05 13:46:49;;;;;;;1.27;1.20;;;;;;;;;;5062774;28;20408;-57
2023/06/05 13:49:15;;;;;;;1.75;1.65;;;;;;;;;;5057322;28;20506;-57
2023/06/05 13:51:42;;;;;;;1.33;1.23;;;;;;;;;;5063806;28;20123;-56
2023/06/05 13:54:08;;;;;;;1.75;1.48;;;;;;;;;;5059401;28;20119;-56
2023/06/05 13:56:34;;;;;;;2.20;2.10;;;;;;;;;;5060909;28;20132;-56
2023/06/05 13:59:00;;;;;;;1.70;1.60;;;;;;;;;;5064146;28;20040;-57
2023/06/05 14:01:26;;;;;;;1.77;1.67;;;;;;;;;;5055780;28;20044;-57
2023/06/05 14:03:52;;;;;;;1.63;1.52;;;;;;;;;;5060966;28;20075;-57
2023/06/05 14:06:18;;;;;;;2.28;2.08;;;;;;;;;;5055327;28;20353;-57
2023/06/05 14:08:44;;;;;;;1.85;1.75;;;;;;;;;;5057578;28;20064;-57
2023/06/05 14:11:10;;;;;;;1.70;1.60;;;;;;;;;;5060659;28;20452;-57
2023/06/05 14:13:36;;;;;;;2.78;1.70;;;;;;;;;;5064324;28;20091;-58
2023/06/05 14:16:03;;;;;;;2.15;2.05;;;;;;;;;;5064115;28;20040;-57
2023/06/05 14:18:29;;;;;;;1.50;1.40;;;;;;;;;;5048159;28;20521;-57
2023/06/05 14:20:55;;;;;;;2.15;1.90;;;;;;;;;;5061583;28;20534;-57
2023/06/05 14:23:23;;;;;;;2.22;1.58;;;;;;;;;;5056076;28;20365;-57
2023/06/05 14:25:49;;;;;;;1.85;1.75;;;;;;;;;;5056516;28;20096;-57
2023/06/05 14:28:15;;;;;;;2.72;1.48;;;;;;;;;;5055755;28;20045;-56
2023/06/05 14:30:41;;;;;;;3.15;2.30;;;;;;;;;;5057553;28;20066;-56
2023/06/05 14:33:07;;;;;;;2.63;2.38;;;;;;;;;;5060655;28;20434;-55
2023/06/05 14:35:33;;;;;;;2.17;1.50;;;;;;;;;;5057483;28;20423;-56
2023/06/05 14:37:59;;;;;;;1.45;1.35;;;;;;;;;;5060813;28;20037;-57
2023/06/05 14:40:25;;;;;;;2.88;1.50;;;;;;;;;;5061383;28;20040;-57
2023/06/05 14:42:52;;;;;;;1.35;1.25;;;;;;;;;;5059575;28;20040;-59
2023/06/05 14:45:18;;;;;;;1.77;1.40;;;;;;;;;;5059606;28;20043;-59
2023/06/05 14:47:44;;;;;;;1.73;1.50;;;;;;;;;;5062240;28;20131;-58